Time;durP1;ratioP1;P1;durP2;ratioP2;P2;SDS_P1;SDS_P2;PMS_P1;PMS_P2;Temp;Humidity;BMP_temperature;BMP_pressure;BME280_temperature;BME280_humidity;BME280_pressure;Samples;Min_cycle;Max_cycle;Signal;HPM_P1;HPM_P2
2021/04/01 00:02:29;;;;;;;36.87;21.70;;;12.90;99.90;;;;;;4887832;29;20590;-80
2021/04/01 00:05:14;;;;;;;38.50;22.00;;;12.90;99.90;;;;;;4890936;29;20258;-79
2021/04/01 00:08:03;;;;;;;41.27;22.37;;;12.80;99.90;;;;;;4893345;29;20214;-78
2021/04/01 00:10:48;;;;;;;39.67;22.53;;;12.80;99.90;;;;;;4887042;29;20231;-79
2021/04/01 00:13:33;;;;;;;42.20;22.23;;;12.80;99.90;;;;;;4892924;29;20251;-78
2021/04/01 00:16:19;;;;;;;39.93;21.93;;;12.70;99.90;;;;;;4894513;29;20267;-80
2021/04/01 00:19:05;;;;;;;36.37;21.77;;;12.70;99.90;;;;;;4892493;29;20661;-79
2021/04/01 00:21:50;;;;;;;40.77;23.00;;;12.70;99.90;;;;;;4892809;29;20233;-79
2021/04/01 00:24:35;;;;;;;42.60;23.67;;;12.70;99.90;;;;;;4890529;29;20212;-79
2021/04/01 00:27:20;;;;;;;41.17;22.90;;;12.70;99.90;;;;;;4892331;29;20207;-78
2021/04/01 00:30:07;;;;;;;41.10;22.17;;;12.70;99.90;;;;;;4894112;29;20769;-79
2021/04/01 00:32:52;;;;;;;37.63;21.67;;;12.70;99.90;;;;;;4890724;29;20765;-79
2021/04/01 00:35:37;;;;;;;40.27;22.03;;;12.70;99.90;;;;;;4890940;29;20255;-79
2021/04/01 00:38:21;;;;;;;43.53;22.97;;;12.80;99.90;;;;;;4892382;29;20291;-79
2021/04/01 00:41:07;;;;;;;41.73;23.40;;;12.80;99.90;;;;;;4891895;29;20223;-79
2021/04/01 00:43:52;;;;;;;40.63;20.73;;;12.80;99.90;;;;;;4891057;29;20776;-79
2021/04/01 00:46:37;;;;;;;40.47;21.83;;;12.90;99.90;;;;;;4892114;29;20341;-79
2021/04/01 00:49:22;;;;;;;39.77;21.43;;;12.90;99.90;;;;;;4893740;29;20295;-79
2021/04/01 00:52:09;;;;;;;43.30;24.13;;;12.90;99.90;;;;;;4892064;29;20239;-80
2021/04/01 00:54:53;;;;;;;42.03;23.40;;;13.00;99.90;;;;;;4892476;29;20254;-79
2021/04/01 00:57:41;;;;;;;41.90;24.60;;;13.00;99.90;;;;;;4890969;29;20212;-78
2021/04/01 01:00:27;;;;;;;36.93;21.90;;;13.10;99.90;;;;;;4894061;29;20212;-80
2021/04/01 01:03:12;;;;;;;42.47;22.90;;;13.10;99.90;;;;;;4892569;29;20238;-79
2021/04/01 01:05:57;;;;;;;47.90;25.33;;;13.20;99.90;;;;;;4891187;29;20587;-79
2021/04/01 01:08:41;;;;;;;45.87;23.60;;;13.20;99.90;;;;;;4891731;29;20617;-79
2021/04/01 01:11:27;;;;;;;44.37;23.67;;;13.30;99.90;;;;;;4894789;29;20271;-76
2021/04/01 01:14:13;;;;;;;40.47;24.13;;;13.40;99.90;;;;;;4899507;29;20215;-75
2021/04/01 01:16:58;;;;;;;43.63;23.70;;;13.40;99.90;;;;;;4894784;29;20248;-76
2021/04/01 01:19:50;;;;;;;46.07;24.80;;;13.40;99.90;;;;;;4893454;29;20297;-76
2021/04/01 01:22:36;;;;;;;43.30;23.83;;;13.40;99.90;;;;;;4891821;29;20282;-78
2021/04/01 01:25:22;;;;;;;47.07;24.37;;;13.50;99.90;;;;;;4893966;29;20272;-77
2021/04/01 01:28:09;;;;;;;41.60;23.80;;;13.50;99.90;;;;;;4890068;29;20255;-77
2021/04/01 01:30:54;;;;;;;47.17;25.43;;;13.60;99.90;;;;;;4894515;29;20283;-77
2021/04/01 01:33:41;;;;;;;42.00;23.80;;;13.60;99.90;;;;;;4893006;29;20584;-76
2021/04/01 01:36:26;;;;;;;44.03;25.00;;;13.60;99.90;;;;;;4895925;29;20264;-77
2021/04/01 01:39:11;;;;;;;45.13;24.30;;;13.60;99.90;;;;;;4891366;29;20628;-77
2021/04/01 01:41:57;;;;;;;45.60;26.27;;;13.60;99.90;;;;;;4894994;29;20344;-75
2021/04/01 01:44:41;;;;;;;45.57;25.60;;;13.60;99.90;;;;;;4894787;29;20204;-76
2021/04/01 01:47:26;;;;;;;47.30;24.83;;;13.60;99.90;;;;;;4896662;29;20249;-78
2021/04/01 01:50:13;;;;;;;43.93;24.53;;;13.70;99.90;;;;;;4896561;29;20210;-78
2021/04/01 01:52:59;;;;;;;41.67;23.87;;;13.70;99.90;;;;;;4893490;29;20227;-78
2021/04/01 01:55:44;;;;;;;44.30;24.50;;;13.70;99.90;;;;;;4892290;29;20204;-76
2021/04/01 01:58:30;;;;;;;35.57;22.97;;;13.70;99.90;;;;;;4896482;29;20259;-78
2021/04/01 02:01:17;;;;;;;41.10;23.23;;;13.70;99.90;;;;;;4892863;29;20270;-77
2021/04/01 02:04:03;;;;;;;40.13;23.77;;;13.60;99.90;;;;;;4896975;29;20281;-76
2021/04/01 02:06:48;;;;;;;42.77;24.40;;;13.60;99.90;;;;;;4894237;29;20232;-78
2021/04/01 02:09:32;;;;;;;42.20;23.67;;;13.60;99.90;;;;;;4892346;29;20243;-78
2021/04/01 02:12:18;;;;;;;44.53;23.97;;;13.60;99.90;;;;;;4894581;29;20233;-77
2021/04/01 02:15:05;;;;;;;45.23;25.37;;;13.60;99.90;;;;;;4895614;29;20662;-77
2021/04/01 02:17:50;;;;;;;44.50;24.73;;;13.50;99.90;;;;;;4896063;29;20291;-78
2021/04/01 02:20:41;;;;;;;49.43;24.23;;;13.50;99.90;;;;;;4891605;29;20204;-76
2021/04/01 02:23:27;;;;;;;41.97;23.87;;;13.50;99.90;;;;;;4892832;29;20257;-76
2021/04/01 02:26:12;;;;;;;44.33;25.37;;;13.50;99.90;;;;;;4891759;29;20237;-77
2021/04/01 02:28:56;;;;;;;41.00;24.00;;;13.50;99.90;;;;;;4892830;29;20365;-78
2021/04/01 02:31:42;;;;;;;44.93;23.93;;;13.50;99.90;;;;;;4892300;29;20705;-77
2021/04/01 02:34:27;;;;;;;49.13;26.93;;;13.50;99.90;;;;;;4894220;29;20600;-78
2021/04/01 02:37:11;;;;;;;48.43;27.33;;;13.40;99.90;;;;;;4893840;29;20582;-77
2021/04/01 02:39:56;;;;;;;47.10;26.63;;;13.40;99.90;;;;;;4891925;29;20293;-76
2021/04/01 02:42:42;;;;;;;43.87;24.97;;;13.40;99.90;;;;;;4892486;29;20244;-76
2021/04/01 02:45:27;;;;;;;45.10;26.43;;;13.40;99.90;;;;;;4892883;29;20271;-76
2021/04/01 02:48:13;;;;;;;47.17;24.90;;;13.40;99.90;;;;;;4891566;29;20289;-77
2021/04/01 02:50:58;;;;;;;51.77;26.60;;;13.40;99.90;;;;;;4890165;29;20223;-78
2021/04/01 02:53:43;;;;;;;47.47;28.43;;;13.40;99.90;;;;;;4893941;29;20307;-77
2021/04/01 02:56:27;;;;;;;46.73;26.50;;;13.40;99.90;;;;;;4888259;29;20318;-76
2021/04/01 02:59:12;;;;;;;45.87;27.00;;;13.30;99.90;;;;;;4890177;29;20267;-76
2021/04/01 03:01:56;;;;;;;55.50;30.83;;;13.30;99.90;;;;;;4894946;29;20239;-77
2021/04/01 03:04:42;;;;;;;54.83;30.23;;;13.30;99.90;;;;;;4894982;29;20718;-75
2021/04/01 03:07:27;;;;;;;60.27;31.60;;;13.30;99.90;;;;;;4892625;29;22400;-77
2021/04/01 03:10:13;;;;;;;55.40;29.30;;;13.20;99.90;;;;;;4893825;29;20292;-75
2021/04/01 03:12:58;;;;;;;63.87;32.27;;;13.10;99.90;;;;;;4894927;29;20292;-78
2021/04/01 03:15:43;;;;;;;57.83;30.83;;;13.10;99.90;;;;;;4892811;29;20218;-77
2021/04/01 03:18:27;;;;;;;59.10;32.77;;;13.00;99.90;;;;;;4894214;29;20218;-76
2021/04/01 03:21:13;;;;;;;65.23;34.13;;;13.00;99.90;;;;;;4895257;29;20322;-80
2021/04/01 03:23:58;;;;;;;61.13;34.13;;;12.90;99.90;;;;;;4892998;29;20234;-77
2021/04/01 03:26:42;;;;;;;58.27;31.93;;;12.90;99.90;;;;;;4894077;29;20578;-77
2021/04/01 03:29:27;;;;;;;60.17;31.63;;;12.80;99.90;;;;;;4894348;29;20290;-78
2021/04/01 03:32:12;;;;;;;56.40;30.97;;;12.80;99.90;;;;;;4890736;29;20242;-77
2021/04/01 03:34:57;;;;;;;60.73;33.37;;;12.80;99.90;;;;;;4889598;29;20295;-77
2021/04/01 03:37:44;;;;;;;61.50;31.67;;;12.80;99.90;;;;;;4889487;29;20262;-76
2021/04/01 03:40:29;;;;;;;60.17;32.20;;;12.70;99.90;;;;;;4890661;29;20226;-79
2021/04/01 03:43:14;;;;;;;65.70;32.77;;;12.70;99.90;;;;;;4893634;29;20260;-79
2021/04/01 03:45:59;;;;;;;65.10;31.87;;;12.60;99.90;;;;;;4893724;29;20235;-77
2021/04/01 03:48:44;;;;;;;61.20;33.80;;;12.50;99.90;;;;;;4894439;29;20811;-76
2021/04/01 03:51:29;;;;;;;56.93;31.43;;;12.50;99.90;;;;;;4892253;29;20286;-79
2021/04/01 03:54:14;;;;;;;58.93;31.57;;;12.40;99.90;;;;;;4893329;29;21069;-79
2021/04/01 03:57:01;;;;;;;58.90;31.20;;;12.30;99.90;;;;;;4892927;29;20216;-78
2021/04/01 03:59:49;;;;;;;57.40;30.67;;;12.20;99.90;;;;;;4891880;29;20276;-76
2021/04/01 04:02:40;;;;;;;60.40;33.13;;;12.10;99.90;;;;;;4891427;29;20645;-78
2021/04/01 04:05:42;;;;;;;64.67;32.83;;;12.10;99.90;;;;;;4892704;29;20262;-77
2021/04/01 04:08:46;;;;;;;60.77;31.57;;;12.00;99.90;;;;;;4894196;29;20670;-76
2021/04/01 04:11:34;;;;;;;62.70;32.77;;;11.90;99.90;;;;;;4890665;29;20232;-77
2021/04/01 04:14:23;;;;;;;59.73;31.07;;;11.80;99.90;;;;;;4894204;29;20210;-76
2021/04/01 04:17:08;;;;;;;67.30;32.93;;;11.70;99.90;;;;;;4895938;29;20229;-78
2021/04/01 04:19:53;;;;;;;64.20;33.40;;;11.60;99.90;;;;;;4889187;29;20221;-81
2021/04/01 04:22:37;;;;;;;59.33;31.90;;;11.50;99.90;;;;;;4889066;29;20257;-77
2021/04/01 04:25:24;;;;;;;69.13;33.03;;;11.40;99.90;;;;;;4878831;29;20211;-80
2021/04/01 04:28:20;;;;;;;65.23;33.13;;;11.40;99.90;;;;;;4892132;29;20223;-79
2021/04/01 04:31:05;;;;;;;69.60;33.70;;;11.30;99.90;;;;;;4886681;29;20638;-79
2021/04/01 04:33:50;;;;;;;78.03;34.30;;;11.20;99.90;;;;;;4895992;29;20205;-79
2021/04/01 04:36:35;;;;;;;67.67;33.10;;;11.20;99.90;;;;;;4891204;29;20229;-80
2021/04/01 04:39:20;;;;;;;71.67;33.53;;;11.10;99.90;;;;;;4895061;29;20280;-79
2021/04/01 04:42:05;;;;;;;68.47;31.60;;;11.10;99.90;;;;;;4886207;29;20268;-79
2021/04/01 04:44:51;;;;;;;65.83;32.37;;;11.00;99.90;;;;;;4888121;29;20237;-79
2021/04/01 04:47:36;;;;;;;66.43;31.83;;;10.90;99.90;;;;;;4894300;29;20574;-79
2021/04/01 04:50:21;;;;;;;64.83;32.73;;;10.90;99.90;;;;;;4898242;29;20255;-79
2021/04/01 04:53:06;;;;;;;61.03;30.93;;;10.90;99.90;;;;;;4896620;29;20240;-80
2021/04/01 04:56:01;;;;;;;64.77;31.80;;;10.80;99.90;;;;;;4898605;29;20268;-79
2021/04/01 04:58:52;;;;;;;68.80;32.07;;;10.80;99.90;;;;;;4894978;29;20208;-78
2021/04/01 05:04:44;;;;;;;63.83;31.87;;;10.70;99.90;;;;;;4895969;29;20275;-77
2021/04/01 05:07:29;;;;;;;62.57;32.47;;;10.60;99.90;;;;;;4898307;29;20235;-77
2021/04/01 05:10:14;;;;;;;71.23;32.87;;;10.60;99.90;;;;;;4896578;29;20259;-78
2021/04/01 05:13:11;;;;;;;62.17;30.70;;;10.50;99.90;;;;;;4896444;29;20992;-76
2021/04/01 05:15:56;;;;;;;68.80;31.57;;;10.50;99.90;;;;;;4899815;29;20215;-78
2021/04/01 05:18:42;;;;;;;64.07;30.87;;;10.50;99.90;;;;;;4897889;29;20269;-77
2021/04/01 05:21:32;;;;;;;73.97;32.30;;;10.40;99.90;;;;;;4893838;29;20364;-75
2021/04/01 05:24:18;;;;;;;67.33;32.07;;;10.40;99.90;;;;;;4893628;29;20241;-77
2021/04/01 05:27:10;;;;;;;70.23;32.40;;;10.40;99.90;;;;;;4892985;29;20530;-77
2021/04/01 05:29:58;;;;;;;62.47;31.83;;;10.40;99.90;;;;;;4890822;29;20224;-76
2021/04/01 05:32:44;;;;;;;60.10;30.87;;;10.30;99.90;;;;;;4918326;29;20273;-74
2021/04/01 05:35:30;;;;;;;63.73;29.30;;;10.30;99.90;;;;;;4909594;29;20208;-73
2021/04/01 05:38:15;;;;;;;62.83;30.63;;;10.30;99.90;;;;;;4917754;29;20212;-74
2021/04/01 05:41:01;;;;;;;59.33;30.30;;;10.30;99.90;;;;;;4915631;29;20242;-73
2021/04/01 05:43:48;;;;;;;60.90;29.07;;;10.30;99.90;;;;;;4897948;29;20766;-79
2021/04/01 05:46:37;;;;;;;59.50;30.27;;;10.30;99.90;;;;;;4894574;29;20212;-79
2021/04/01 05:49:43;;;;;;;67.50;31.10;;;10.30;99.90;;;;;;4898994;29;20332;-77
2021/04/01 05:53:15;;;;;;;67.10;30.90;;;10.30;99.90;;;;;;4901949;29;20257;-78
2021/04/01 06:02:19;;;;;;;60.63;29.03;;;10.30;99.90;;;;;;4898697;29;20316;-78
2021/04/01 06:05:08;;;;;;;64.97;29.07;;;10.30;99.90;;;;;;4896456;29;20603;-76
2021/04/01 06:07:56;;;;;;;68.17;29.83;;;10.30;99.90;;;;;;4896902;29;20268;-79
2021/04/01 06:10:41;;;;;;;67.73;29.67;;;10.50;99.90;;;;;;4897465;29;20244;-79
2021/04/01 06:13:30;;;;;;;60.90;27.07;;;10.40;99.90;;;;;;4900199;29;20205;-78
2021/04/01 06:16:16;;;;;;;58.30;27.00;;;10.40;99.90;;;;;;4894526;29;21487;-79
2021/04/01 06:19:05;;;;;;;67.73;29.03;;;10.40;99.90;;;;;;4893067;29;20720;-75
2021/04/01 06:21:50;;;;;;;58.13;27.97;;;10.50;99.90;;;;;;4897363;29;20236;-79
2021/04/01 06:24:38;;;;;;;63.83;27.03;;;10.60;99.90;;;;;;4894657;29;20235;-78
2021/04/01 06:27:35;;;;;;;59.50;28.57;;;10.60;99.90;;;;;;4896313;29;20218;-78
2021/04/01 06:30:22;;;;;;;62.23;30.07;;;10.70;99.90;;;;;;4896255;29;20323;-76
2021/04/01 06:33:10;;;;;;;60.67;27.73;;;10.70;99.90;;;;;;4896061;29;20276;-77
2021/04/01 06:35:56;;;;;;;56.93;26.50;;;10.80;99.90;;;;;;4895861;29;20719;-79
2021/04/01 06:38:41;;;;;;;64.73;30.33;;;10.90;99.90;;;;;;4894451;29;20392;-78
2021/04/01 06:41:29;;;;;;;61.90;31.77;;;10.90;99.90;;;;;;4896338;29;20600;-79
2021/04/01 06:44:27;;;;;;;61.50;29.97;;;11.00;99.90;;;;;;4896075;29;20266;-78
2021/04/01 06:47:16;;;;;;;63.73;30.60;;;11.10;99.90;;;;;;4897823;29;20218;-76
2021/04/01 06:50:06;;;;;;;60.67;29.77;;;11.20;99.90;;;;;;4899537;29;20257;-79
2021/04/01 06:52:58;;;;;;;65.40;31.93;;;11.30;99.90;;;;;;4897222;29;20307;-77
2021/04/01 06:55:56;;;;;;;62.73;31.63;;;11.40;99.90;;;;;;4894887;29;20641;-78
2021/04/01 06:58:56;;;;;;;53.13;27.80;;;11.50;99.90;;;;;;4896892;29;20639;-78
2021/04/01 07:01:49;;;;;;;67.63;32.27;;;11.50;99.90;;;;;;4893403;29;20262;-76
2021/04/01 07:04:36;;;;;;;68.80;31.33;;;11.60;99.90;;;;;;4895199;29;20242;-77
2021/04/01 07:07:23;;;;;;;69.53;33.23;;;11.70;99.90;;;;;;4891683;29;20300;-77
2021/04/01 07:10:16;;;;;;;67.80;33.07;;;11.80;99.90;;;;;;4880171;29;20640;-77
2021/04/01 07:13:07;;;;;;;75.73;33.23;;;11.90;99.90;;;;;;4888611;29;20262;-76
2021/04/01 07:15:59;;;;;;;68.43;32.10;;;12.00;99.90;;;;;;4899477;29;20213;-78
2021/04/01 07:46:35;;;;;;;77.17;37.90;;;12.90;99.90;;;;;;4896841;29;20248;-77
2021/04/01 07:49:27;;;;;;;81.33;40.50;;;13.10;99.90;;;;;;4895661;29;20205;-80
2021/04/01 07:52:13;;;;;;;86.60;42.27;;;13.20;99.90;;;;;;4895788;29;20281;-80
2021/04/01 07:55:10;;;;;;;102.37;44.70;;;13.30;99.90;;;;;;4894875;29;20202;-79
2021/04/01 07:58:11;;;;;;;96.77;43.53;;;13.40;99.90;;;;;;4888154;29;20234;-80
2021/04/01 08:01:06;;;;;;;97.07;46.33;;;13.50;99.90;;;;;;4894165;29;20216;-80
2021/04/01 08:03:56;;;;;;;94.43;43.43;;;13.60;99.90;;;;;;4875420;29;20640;-78
2021/04/01 08:06:43;;;;;;;98.03;47.17;;;13.80;99.90;;;;;;4880747;29;20221;-80
2021/04/01 08:09:33;;;;;;;97.60;45.17;;;13.90;99.90;;;;;;4874442;29;20354;-80
2021/04/01 08:12:23;;;;;;;89.03;45.00;;;14.00;99.90;;;;;;4877683;29;20247;-80
2021/04/01 08:15:12;;;;;;;86.37;42.67;;;14.10;99.90;;;;;;4881420;29;20244;-80
2021/04/01 08:18:06;;;;;;;82.00;43.57;;;14.30;99.90;;;;;;4863640;29;20698;-80
2021/04/01 08:20:56;;;;;;;90.93;45.67;;;14.40;99.90;;;;;;4878647;29;20205;-77
2021/04/01 08:23:44;;;;;;;91.03;46.33;;;14.50;99.90;;;;;;4880268;29;20301;-79
2021/04/01 08:26:40;;;;;;;87.97;43.50;;;14.70;99.90;;;;;;4867050;29;20208;-79
2021/04/01 08:35:36;;;;;;;96.57;45.33;;;15.10;99.90;;;;;;4864443;29;20382;-79
2021/04/01 08:38:22;;;;;;;92.43;45.07;;;15.20;99.90;;;;;;4869541;29;20217;-79
2021/04/01 08:41:18;;;;;;;85.30;44.50;;;15.40;99.90;;;;;;4870677;29;20292;-79
2021/04/01 08:44:23;;;;;;;85.73;43.30;;;15.60;99.90;;;;;;4871790;29;20252;-77
2021/04/01 08:47:22;;;;;;;90.53;45.97;;;15.70;99.90;;;;;;4871210;29;20261;-78
2021/04/01 08:50:24;;;;;;;90.10;45.40;;;15.90;99.90;;;;;;4865207;29;20266;-78
2021/04/01 08:53:46;;;;;;;87.07;44.73;;;16.10;99.90;;;;;;4868562;29;20229;-79
2021/04/01 08:56:37;;;;;;;89.40;46.40;;;16.30;99.90;;;;;;4865642;29;20298;-79
2021/04/01 08:59:25;;;;;;;81.63;45.33;;;16.50;99.90;;;;;;4864983;29;20206;-78
2021/04/01 09:02:13;;;;;;;93.63;45.40;;;16.60;99.90;;;;;;4885478;29;20288;-78
2021/04/01 09:05:00;;;;;;;83.63;42.73;;;16.80;99.90;;;;;;4881208;29;20264;-79
2021/04/01 09:07:49;;;;;;;84.23;44.00;;;17.00;99.90;;;;;;4890120;29;20213;-79
2021/04/01 09:10:37;;;;;;;83.97;46.57;;;17.30;99.90;;;;;;4894180;29;20298;-79
2021/04/01 09:13:27;;;;;;;85.70;45.83;;;17.40;99.90;;;;;;4898742;29;20286;-79
2021/04/01 09:16:20;;;;;;;78.83;45.23;;;17.60;99.90;;;;;;4891618;29;20699;-74
2021/04/01 09:19:05;;;;;;;94.97;50.23;;;17.90;99.90;;;;;;4897686;29;20249;-79
2021/04/01 09:21:52;;;;;;;83.63;46.73;;;18.10;99.90;;;;;;4896884;29;20236;-78
2021/04/01 09:24:37;;;;;;;80.47;46.27;;;18.40;99.90;;;;;;4896935;29;20398;-77
2021/04/01 09:27:23;;;;;;;81.27;45.40;;;18.70;99.90;;;;;;4890587;29;20203;-78
2021/04/01 09:30:10;;;;;;;74.60;44.67;;;19.10;99.90;;;;;;4892646;29;20703;-79
2021/04/01 09:32:58;;;;;;;78.47;45.53;;;19.70;99.90;;;;;;4892048;29;20413;-79
2021/04/01 09:35:45;;;;;;;75.30;44.27;;;20.40;99.90;;;;;;4890644;29;20727;-78
2021/04/01 09:38:37;;;;;;;73.70;45.03;;;21.10;99.90;;;;;;4901634;29;20750;-79
2021/04/01 09:41:26;;;;;;;80.37;47.20;;;21.90;99.90;;;;;;4902174;29;20235;-79
2021/04/01 09:44:12;;;;;;;78.30;45.50;;;22.70;99.90;;;;;;4893768;29;20246;-77
2021/04/01 09:47:02;;;;;;;77.43;47.33;;;23.40;99.90;;;;;;4897380;29;20227;-80
2021/04/01 09:49:50;;;;;;;74.23;47.43;;;24.20;97.40;;;;;;4901351;29;20602;-78
2021/04/01 09:52:36;;;;;;;72.30;46.58;;;24.90;95.40;;;;;;4899060;29;20230;-79
2021/04/01 09:55:22;;;;;;;66.10;43.67;;;25.60;92.70;;;;;;4897942;29;20297;-80
2021/04/01 09:58:17;;;;;;;64.75;44.17;;;26.20;91.50;;;;;;4891176;29;20239;-80
2021/04/01 10:01:27;;;;;;;66.70;45.88;;;26.90;91.80;;;;;;4897847;29;20219;-80
2021/04/01 10:04:19;;;;;;;69.03;47.47;;;27.60;89.90;;;;;;4896433;29;20234;-80
2021/04/01 10:07:14;;;;;;;64.47;44.30;;;28.20;81.30;;;;;;4943437;23;20232;-84
2021/04/01 10:10:02;;;;;;;70.45;48.42;;;28.80;81.60;;;;;;4957054;28;20216;-85
2021/04/01 10:12:47;;;;;;;68.38;49.28;;;29.40;66.20;;;;;;4958404;29;20209;-85
2021/04/01 10:15:32;;;;;;;64.75;45.30;;;29.80;61.70;;;;;;4960460;28;20230;-85
2021/04/01 10:18:25;;;;;;;62.78;46.15;;;30.10;66.50;;;;;;4942425;29;20763;-85
2021/04/01 10:21:11;;;;;;;58.83;45.35;;;30.60;65.00;;;;;;4935504;29;20695;-86
2021/04/01 10:23:58;;;;;;;57.65;43.92;;;31.00;64.40;;;;;;4937247;29;20299;-85
2021/04/01 10:26:45;;;;;;;58.38;44.45;;;31.40;61.80;;;;;;4930441;29;20324;-85
2021/04/01 10:29:43;;;;;;;62.67;46.78;;;31.80;59.60;;;;;;4931845;29;20202;-85
2021/04/01 10:32:37;;;;;;;58.55;46.38;;;32.20;57.20;;;;;;4931204;29;20206;-86
2021/04/01 10:35:25;;;;;;;57.28;46.22;;;32.50;58.00;;;;;;4938494;29;20648;-85
2021/04/01 10:38:14;;;;;;;54.53;44.90;;;32.80;54.90;;;;;;4945002;29;20210;-85
2021/04/01 10:41:09;;;;;;;51.53;41.05;;;33.00;54.40;;;;;;4940063;29;20726;-85
2021/04/01 10:43:59;;;;;;;52.92;41.50;;;33.20;55.50;;;;;;4941257;29;20267;-86
2021/04/01 10:46:49;;;;;;;53.75;41.80;;;33.40;54.30;;;;;;4934131;29;20254;-86
2021/04/01 10:49:36;;;;;;;45.95;34.33;;;33.60;51.70;;;;;;4941537;29;20640;-85
2021/04/01 10:52:22;;;;;;;40.70;33.20;;;33.80;53.30;;;;;;4949590;29;20242;-86
2021/04/01 10:55:07;;;;;;;39.13;30.92;;;33.90;52.60;;;;;;4933853;29;20230;-85
2021/04/01 10:57:52;;;;;;;27.58;21.67;;;34.00;48.70;;;;;;4937162;29;20709;-84
2021/04/01 11:00:50;;;;;;;26.20;19.77;;;34.20;50.80;;;;;;4943409;29;20262;-85
2021/04/01 11:03:42;;;;;;;19.45;12.98;;;34.30;47.10;;;;;;4938586;29;20215;-86
2021/04/01 11:06:29;;;;;;;23.10;14.00;;;34.50;50.80;;;;;;4937943;29;20676;-86
2021/04/01 11:09:15;;;;;;;18.77;13.30;;;34.60;50.20;;;;;;4918938;29;20215;-86
2021/04/01 11:12:14;;;;;;;18.50;11.90;;;34.70;48.00;;;;;;4913200;29;20224;-86
2021/04/01 11:15:04;;;;;;;16.23;10.45;;;35.00;49.10;;;;;;4923324;29;20741;-85
2021/04/01 11:17:55;;;;;;;17.02;10.88;;;35.30;47.70;;;;;;4911204;29;20619;-85
2021/04/01 11:20:42;;;;;;;16.30;11.00;;;35.30;46.80;;;;;;4906453;29;20207;-86
2021/04/01 11:23:28;;;;;;;19.70;13.93;;;35.60;49.00;;;;;;4914903;29;20249;-86
2021/04/01 11:26:14;;;;;;;19.35;12.88;;;35.80;49.30;;;;;;4932205;29;20705;-86
2021/04/01 11:28:59;;;;;;;15.82;11.43;;;36.00;46.30;;;;;;4916516;29;20609;-84
2021/04/01 11:31:45;;;;;;;16.20;9.70;;;36.20;46.90;;;;;;4924916;29;20300;-86
2021/04/01 11:34:30;;;;;;;10.20;6.82;;;36.40;45.40;;;;;;4918347;29;20310;-86
2021/04/01 11:37:18;;;;;;;12.93;6.38;;;36.70;46.00;;;;;;4916188;29;20343;-85
2021/04/01 11:40:08;;;;;;;8.93;5.90;;;36.90;46.30;;;;;;4920015;29;20296;-86
2021/04/01 11:42:55;;;;;;;10.20;5.35;;;37.10;46.00;;;;;;4912806;29;20211;-86
2021/04/01 11:45:40;;;;;;;11.68;5.75;;;37.30;46.00;;;;;;4905700;29;20648;-85
2021/04/01 11:48:25;;;;;;;7.15;5.20;;;37.50;45.60;;;;;;4919622;29;20294;-85
2021/04/01 11:51:16;;;;;;;12.63;5.10;;;37.70;44.80;;;;;;4916791;29;20287;-86
2021/04/01 11:54:02;;;;;;;7.85;4.60;;;38.00;44.40;;;;;;4912626;29;20367;-86
2021/04/01 11:56:47;;;;;;;10.20;5.00;;;38.00;44.70;;;;;;4922287;29;20255;-87
2021/04/01 11:59:35;;;;;;;7.82;4.18;;;38.10;41.20;;;;;;4922037;29;20238;-86
2021/04/01 12:02:22;;;;;;;6.82;4.05;;;38.10;44.70;;;;;;4920080;29;20241;-86
2021/04/01 12:05:09;;;;;;;9.25;3.95;;;38.20;42.80;;;;;;4922131;29;20265;-86
2021/04/01 12:07:55;;;;;;;8.25;3.70;;;38.20;42.90;;;;;;4927969;29;20660;-86
2021/04/01 12:10:40;;;;;;;7.97;3.88;;;38.30;44.60;;;;;;4943216;29;20709;-87
2021/04/01 12:13:25;;;;;;;7.13;3.15;;;38.30;42.70;;;;;;4941388;29;20214;-87
2021/04/01 12:16:20;;;;;;;7.47;3.38;;;38.40;44.50;;;;;;4953496;28;20224;-87
2021/04/01 12:19:05;;;;;;;6.95;3.47;;;38.50;44.10;;;;;;4949118;29;20235;-85
2021/04/01 12:21:50;;;;;;;7.97;3.05;;;38.50;42.40;;;;;;4938526;29;20206;-87
2021/04/01 12:24:36;;;;;;;6.38;2.75;;;38.50;41.00;;;;;;4940928;29;20214;-88
2021/04/01 12:27:27;;;;;;;15.05;3.30;;;38.60;40.70;;;;;;4931140;29;20230;-87
2021/04/01 12:30:24;;;;;;;8.05;3.00;;;38.50;40.70;;;;;;4953043;29;20279;-87
2021/04/01 12:33:11;;;;;;;9.18;3.28;;;38.40;42.20;;;;;;4960691;29;20202;-87
2021/04/01 12:35:58;;;;;;;9.27;3.00;;;38.20;42.90;;;;;;4957969;28;20338;-86
2021/04/01 12:38:46;;;;;;;7.18;2.55;;;38.00;42.30;;;;;;4966535;28;20207;-86
2021/04/01 12:41:34;;;;;;;6.97;2.83;;;37.90;42.60;;;;;;4959845;28;20250;-86
2021/04/01 12:44:19;;;;;;;7.18;2.47;;;37.90;43.50;;;;;;4940653;29;20876;-88
2021/04/01 12:47:04;;;;;;;7.57;2.63;;;37.90;43.10;;;;;;4928966;29;20235;-87
2021/04/01 12:49:50;;;;;;;8.60;2.95;;;37.80;43.60;;;;;;4941566;29;20439;-87
2021/04/01 12:52:45;;;;;;;6.82;2.78;;;38.00;43.70;;;;;;4941014;29;20206;-87
2021/04/01 12:55:37;;;;;;;8.43;2.60;;;38.00;44.10;;;;;;4946977;29;20291;-84
2021/04/01 12:58:24;;;;;;;9.40;3.20;;;38.20;42.60;;;;;;4948569;29;20267;-87
2021/04/01 13:01:16;;;;;;;9.63;3.03;;;38.20;41.70;;;;;;4936899;29;20211;-87
2021/04/01 13:04:04;;;;;;;8.48;2.88;;;38.30;42.40;;;;;;4939733;29;20224;-88
2021/04/01 13:06:57;;;;;;;7.38;2.97;;;38.30;43.80;;;;;;4957401;28;20289;-87
2021/04/01 13:09:45;;;;;;;7.60;2.90;;;38.20;42.30;;;;;;4933192;29;20259;-87
2021/04/01 13:12:30;;;;;;;6.03;2.75;;;38.10;40.60;;;;;;4943952;29;20403;-87
2021/04/01 13:15:16;;;;;;;6.53;2.17;;;38.00;41.50;;;;;;4950648;29;20278;-87
2021/04/01 13:18:01;;;;;;;6.22;2.10;;;37.90;40.50;;;;;;4941074;29;20210;-87
2021/04/01 13:20:46;;;;;;;5.00;2.10;;;37.80;40.90;;;;;;4941984;29;20218;-87
2021/04/01 13:23:42;;;;;;;5.47;2.45;;;37.70;43.60;;;;;;4949595;29;20218;-87
2021/04/01 13:26:27;;;;;;;6.65;2.35;;;37.60;42.30;;;;;;4954182;28;20234;-87
2021/04/01 13:29:13;;;;;;;7.05;2.42;;;37.50;41.70;;;;;;4936605;29;20220;-88
2021/04/01 13:32:01;;;;;;;14.70;3.00;;;37.50;44.30;;;;;;4948567;29;20293;-86
2021/04/01 13:34:51;;;;;;;7.93;2.28;;;37.50;42.90;;;;;;4942345;29;20226;-86
2021/04/01 13:37:39;;;;;;;7.05;2.42;;;37.50;42.90;;;;;;4944750;29;20278;-87
2021/04/01 13:40:25;;;;;;;7.22;2.60;;;37.50;43.10;;;;;;4956550;29;20316;-87
2021/04/01 13:43:12;;;;;;;5.88;2.40;;;37.60;43.80;;;;;;4947829;29;20218;-88
2021/04/01 13:45:58;;;;;;;7.20;2.88;;;37.60;44.00;;;;;;4945293;29;20230;-87
2021/04/01 13:48:45;;;;;;;5.43;2.22;;;37.70;43.40;;;;;;4943963;29;20220;-88
2021/04/01 13:51:31;;;;;;;6.22;2.28;;;37.80;42.80;;;;;;4951304;29;20214;-87
2021/04/01 13:54:25;;;;;;;7.15;2.75;;;37.60;42.90;;;;;;4961308;29;20363;-87
2021/04/01 13:57:27;;;;;;;7.57;2.30;;;37.70;42.90;;;;;;4950069;29;20255;-87
2021/04/01 14:09:49;;;;;;;4.93;1.92;;;37.40;41.80;;;;;;4945855;29;20937;-87
2021/04/01 14:12:35;;;;;;;3.60;1.60;;;37.30;43.20;;;;;;4944813;29;20698;-86
2021/04/01 14:15:23;;;;;;;5.18;1.50;;;37.10;43.10;;;;;;4963215;29;20242;-87
2021/04/01 14:18:14;;;;;;;6.32;1.83;;;37.20;44.00;;;;;;4947400;29;20295;-87
2021/04/01 14:21:02;;;;;;;4.80;1.90;;;36.90;42.30;;;;;;4943265;29;20257;-87
2021/04/01 14:23:48;;;;;;;7.10;1.73;;;36.90;44.00;;;;;;4956356;29;20230;-87
2021/04/01 14:26:36;;;;;;;5.47;1.90;;;36.80;42.50;;;;;;4956322;28;20233;-87
2021/04/01 14:29:22;;;;;;;6.10;1.88;;;36.80;42.20;;;;;;4962659;28;20271;-88
2021/04/01 14:32:11;;;;;;;5.55;1.95;;;36.80;42.70;;;;;;4945996;29;20227;-87
2021/04/01 14:34:58;;;;;;;5.10;2.00;;;36.60;42.90;;;;;;4948285;29;20221;-89
2021/04/01 14:37:44;;;;;;;6.20;1.67;;;36.60;42.30;;;;;;4961892;28;20305;-87
2021/04/01 14:40:32;;;;;;;4.43;1.80;;;36.50;41.10;;;;;;4946092;29;20254;-88
2021/04/01 14:43:19;;;;;;;4.55;1.52;;;36.40;40.80;;;;;;4942080;29;20791;-87
2021/04/01 14:46:06;;;;;;;9.73;1.98;;;36.30;40.90;;;;;;4939682;29;20270;-88
2021/04/01 14:48:51;;;;;;;4.57;1.90;;;36.20;40.40;;;;;;4947926;29;20230;-88
2021/04/01 14:51:36;;;;;;;3.95;1.50;;;36.00;38.90;;;;;;4941624;29;20223;-87
2021/04/01 14:54:23;;;;;;;4.30;1.58;;;36.00;40.60;;;;;;4940622;29;20230;-87
2021/04/01 14:57:10;;;;;;;4.85;1.65;;;35.80;39.30;;;;;;4948141;28;20295;-86
2021/04/01 14:59:56;;;;;;;5.10;1.33;;;35.60;40.80;;;;;;4930011;29;20186;-88
2021/04/01 15:02:43;;;;;;;6.13;1.80;;;35.40;40.30;;;;;;4942178;29;20210;-87
2021/04/01 15:05:29;;;;;;;5.53;1.88;;;35.40;37.20;;;;;;4933283;29;20203;-85
2021/04/01 15:08:16;;;;;;;7.20;2.03;;;35.10;37.50;;;;;;4960422;29;20210;-87
2021/04/01 15:11:02;;;;;;;6.95;1.80;;;34.80;40.80;;;;;;4954405;29;20227;-87